Tiempo atmosférico en la estación meteorológica de Fuengirola, Málaga (3 m.)



Fecha
DESCASC
Temp. máxima en grados centígrados (hora)
DESCASC
Temp. mínima en grados centígrados (hora)
DESCASC
Temp. media en grados centígrados
DESCASC
Racha de viento máxima en m/sg (hora)
DESCASC
Velocidad máxima media en intervalos de 10 minutos(hora)
DESCASC
Precipitaciones diarias en mm
DESCASC
Precipitaciones de 00:00 a 06:00 en mm
DESCASC
Precipitaciones de 06:00 a 12:00 en mm
DESCASC
Precipitaciones de 12:00 a 18:00 en mm
DESCASC
Precipitaciones de 18:00 a 24:00 en mm
DESCASC
17-10-2019 23.1 (16:30) 15 (09:00) 19.1 7.22 (17:40) 3.61 (12:50) 0 0 0 0 0
16-10-2019 21.9 (18:30) 15.3 (09:00) 18.6 5.83 (17:20) 4.17 (15:50) 0 0 0 0 0
15-10-2019 23.1 (16:50) 17.2 (08:30) 20.2 10.83 (11:50) 6.67 (11:50) 0 0 0 0 0
14-10-2019 23.9 (17:10) 20.1 (23:59) 22 11.67 (16:50) 3.61 (17:20) 0.4 0.4 0 0 0
13-10-2019 23.9 (17:10) 19.5 (00:00) 21.7 4.72 (14:50) 3.89 (15:00) 0 0 0 0 0
12-10-2019 24.6 (16:10) 21.7 (00:00) 23.2 4.17 (06:20) 2.5 (14:30) 0 0 0 0 0
11-10-2019 24.4 (16:10) 21.8 (00:00) 23.1 6.94 (03:20) 3.89 (03:20) 0 0 0 0 0
10-10-2019 24.3 (17:00) 19.8 (00:00) 22 7.5 (10:10) 4.17 (10:10) 0 0 0 0 0
09-10-2019 23.6 (15:50) 19.5 (00:00) 21.6 3.89 (11:50) 3.06 (12:30) 0 0 0 0 0
08-10-2019 24.2 (15:40) 20.1 (00:00) 22.2 8.06 (02:50) 5.83 (02:50) 0 0 0 0 0
07-10-2019 23.4 (17:10) 19 (00:00) 21.2 3.61 (15:00) 2.22 (15:20) 0 0 0 0 0
06-10-2019 25.2 (17:40) 19.6 (00:00) 22.4 6.94 (16:30) 4.72 (16:30) 0 0 0 0 0
05-10-2019 25.5 (19:30) 18.5 (00:00) 22 5 (15:40) 3.61 (15:40) 0 0 0 0 0
04-10-2019 24.8 (00:10) 19.1 (00:00) 21.9 6.67 (03:40) 4.72 (04:00) 0 0 0 0 0
03-10-2019 26.5 (17:00) 19.9 (00:00) 23.2 7.78 (15:50) 5 (16:10) 0 0 0 0 0
02-10-2019 27.8 (17:00) 21.4 (00:00) 24.6 11.39 (00:50) 6.11 (12:50) 0 0 0 0 0
01-10-2019 28.2 (15:40) 19.2 (00:00) 23.7 6.67 (23:10) 3.06 (13:30) 0 0 0 0 0
30-09-2019 24.2 (18:30) 19.3 (00:00) 21.8 5.83 (17:40) 4.17 (15:30) 0 0 0 0 0
29-09-2019 24.5 (15:50) 19.7 (00:00) 22.1 5 (18:00) 3.61 (17:50) 0 0 0 0 0
28-09-2019 23.7 (18:40) 20.1 (00:00) 21.9 4.17 (01:30) 3.06 (01:30) 0 0 0 0 0
27-09-2019 23.7 (15:30) 20.3 (00:00) 22 5.83 (18:40) 3.61 (18:30) 0 0 0 0 0
26-09-2019 28.2 (01:20) 21.7 (00:00) 25 8.33 (02:50) 5.56 (03:00) 0 0 0 0 0
25-09-2019 28.7 (17:30) 20.9 (00:00) 24.8 7.22 (23:20) 5 (18:20) 0 0 0 0 0
24-09-2019 28.2 (15:30) 18.9 (00:00) 23.6 7.5 (13:00) 5 (12:50) 0 0 0 0 0
23-09-2019 24.6 (15:10) 20.7 (00:00) 22.7 4.44 (18:00) 3.06 (18:20) 0 0 0 0 0
22-09-2019 25.9 (18:40) 20.4 (00:00) 23.1 10.28 (16:40) 3.06 (12:50) 0 0 0 0 0
21-09-2019 24.3 (18:20) 22.6 (00:00) 23.4 7.78 (21:30) 4.17 (14:20) 0 0 0 0 0
20-09-2019 25.1 (15:50) 22.8 (00:00) 23.9 5.28 (13:10) 3.61 (13:00) 0 0 0 0 0

Gráficas

Temp. máximas Temp. mínimas Temp. medias Precipitaciones Rachas de viento máximas Velocidades máximas media en intervalos de 10 minutos

Datos horarios

Fecha y hora oficial Temperatura (ºC) Velocidad del viento (km/h) Dirección del viento Racha (km/h) Dirección de racha Precipitación (mm) Presión (hPa) Tendencia (hPa) Humedad (%)
2019-10-19 23:00:00 21.1 4 Oeste 28 Oeste 0 1008.6 0.1 84
2019-10-19 22:00:00 21.7 11 Oeste 37 Oeste 0 1008.5 -0.1 81
2019-10-19 21:00:00 21.9 6 Oeste 31 Oeste 0 1008.6 0 82
2019-10-19 20:00:00 21.9 9 Oeste 28 Oeste 0 1008.5 -0.5 82
2019-10-19 19:00:00 22 9 Oeste 31 Sudoeste 0 1008.6 -1 81
2019-10-19 18:00:00 22.1 10 Oeste 37 Oeste 0 1008.6 -1.6 79
2019-10-19 17:00:00 22.7 9 Oeste 40 Oeste 0 1009 -1.7 74
2019-10-19 16:00:00 22.2 8 Oeste 36 Oeste 0 1009.6 -1.7 79
2019-10-19 15:00:00 22.4 8 Oeste 38 Oeste 0 1010.2 -1.4 79
2019-10-19 14:00:00 22.5 10 Oeste 35 Oeste 0 1010.7 -1.4 73
2019-10-19 13:00:00 21.5 10 Sudoeste 30 Sur 0 1011.3 -0.7 78
2019-10-19 12:00:00 21.7 5 Sudoeste 17 Oeste 0 1011.6 0 77
2019-10-19 11:00:00 20.4 6 Sudoeste 22 Sudoeste 0 1012.1 0.6 86
2019-10-19 10:00:00 19.5 0 Calma 12 Oeste 0 1012 0.6 87
2019-10-19 09:00:00 18.3 3 Sudoeste 9 Sur 0 1011.6 0.3 91
2019-10-19 08:00:00 18.5 2 Sudoeste 11 Oeste 0 1011.5 -0.2 92
2019-10-19 07:00:00 18.1 0 Calma 8 Sudoeste 0 1011.4 -0.8 95
2019-10-19 06:00:00 18.2 0 Calma 5 Sudoeste 0 1011.3 -1.5 95
2019-10-19 05:00:00 18.9 2 Noroeste 7 Oeste 0 1011.7 -1.4 95
2019-10-19 04:00:00 19 0 Calma 3 Norte 0 1012.2 -1.4 96
2019-10-19 03:00:00 19 0 Calma 6 Norte 0 1012.8 -1.1 97
2019-10-19 02:00:00 19.3 0 Calma 4 Noroeste 0 1013.1 -1.1 97
2019-10-19 01:00:00 19.6 0 Calma 4 Norte 0 1013.6 -0.3 98
2019-10-19 00:00:00 19.6 3 Sudeste 13 Este 0 1013.9 0 97
2019-10-18 23:00:00 19.5 0 Calma 10 Este 0 1014.2 0.9 96
2019-10-18 22:00:00 19.6 5 Este 13 Nordeste 0 1013.9 0.5 96
2019-10-18 21:00:00 19.9 10 Nordeste 17 Norte 0 1013.9 0.1 93
2019-10-18 20:00:00 21.9 0 Calma 10 Oeste 0 1013.3 -1.1 81
2019-10-18 19:00:00 22.4 6 Sudoeste 13 Sur 0 1013.4 -1.5 79
2019-10-18 18:00:00 21.7 7 Sudoeste 16 Sudoeste 0 1013.8 -1.7 83
2019-10-18 17:00:00 23.3 3 Oeste 18 Sur 0 1014.4 -2.1 74
2019-10-18 16:00:00 21.3 10 Sudoeste 63 Sudoeste 0 1014.9 -2.3 86
2019-10-18 15:00:00 21.9 5 Sudoeste 25 Sudoeste 0 1015.5 -2 68
2019-10-18 14:00:00 19.2 13 Sudoeste 24 Sudoeste 0 1016.5 -1.1 87
2019-10-18 13:00:00 20 12 Sur 14 Sur 0 1017.2 -0.2 84
2019-10-18 12:00:00 19.8 2 Sudeste 8 Sur 0 1017.5 0.7 80
2019-10-18 11:00:00 19.1 2 Sur 4 Sur 0 1017.6 0.7 76
2019-10-18 10:00:00 18.1 0 Calma 6 Noroeste 0 1017.4 0.7 76
2019-10-18 09:00:00 17.1 5 Noroeste 8 Noroeste 0 1016.8 0.2 75
2019-10-18 08:00:00 17.6 6 Noroeste 8 Noroeste 0 1016.9 0.2 74
2019-10-18 07:00:00 17.8 0 Calma 7 Norte 0 1016.7 -0.4 75
2019-10-18 06:00:00 18.3 3 Nordeste 5 Nordeste 0 1016.6 -0.6 75
2019-10-18 05:00:00 18.1 3 Norte 14 Nordeste 0 1016.7 -0.4 78
2019-10-18 04:00:00 18.7 6 Nordeste 9 Nordeste 0 1017.1 -0.4 68
2019-10-18 03:00:00 18.8 0 Calma 9 Sur 0 1017.2 -0.2 66
2019-10-18 02:00:00 19.1 3 Noroeste 6 Oeste 0 1017.1 0 62
2019-10-18 01:00:00 19.3 2 Sudoeste 8 Noroeste 0 1017.5 0.7 69
2019-10-18 00:00:00 19.4 5 Noroeste 10 Noroeste 0 1017.4 0.8 66
2019-10-17 23:00:00 19.2 0 Calma 6 Sudoeste 0 1017.1 0.8 76
2019-10-17 22:00:00 19.6 0 Calma 8 Sudoeste 0 1016.8 0.5 76
2019-10-17 21:00:00 19.8 2 Sudoeste 11 Sudoeste 0 1016.6 0.4 85
2019-10-17 20:00:00 21.8 3 Sudoeste 15 Noroeste 0 1016.3 0 67
2019-10-17 19:00:00 22.2 3 Oeste 22 Sudoeste 0 1016.3 -0.6 66
2019-10-17 18:00:00 22.4 5 Sudoeste 26 Oeste 0 1016.2 -1.2 63
2019-10-17 17:00:00 22.6 5 Sudoeste 19 Oeste 0 1016.3 -2 58
2019-10-17 16:00:00 21.7 11 Sudoeste 22 Sudoeste 0 1016.9 -1.7 62
2019-10-17 15:00:00 21.8 4 Sudoeste 19 Sudoeste 0 1017.4 -1.6 57
2019-10-17 14:00:00 20.3 9 Sudoeste 20 Sudoeste 0 1018.3 -0.5 71
2019-10-17 13:00:00 19.2 12 Sudoeste 20 Sudoeste 0 1018.6 0.1 79
2019-10-17 12:00:00 18.8 10 Sur 14 Sudoeste 0 1019 1.2 85
2019-10-17 11:00:00 17.7 4 Este 8 Sudeste 0 1018.8 1.2 68
2019-10-17 10:00:00 16.7 5 Oeste 14 Oeste 0 1018.5 1.2 63
2019-10-17 09:00:00 15.1 6 Noroeste 12 Noroeste 0 1017.8 0.7 68
2019-10-17 08:00:00 15.3 5 Noroeste 12 Noroeste 0 1017.6 0.3 67
2019-10-17 07:00:00 15.9 4 Noroeste 8 Noroeste 0 1017.3 -0.2 67
2019-10-17 06:00:00 16.2 4 Noroeste 7 Noroeste 0 1017.1 -0.6 68
2019-10-17 05:00:00 16.6 3 Norte 10 Norte 0 1017.3 -0.4 68
2019-10-17 04:00:00 16.8 2 Nordeste 15 Oeste 0 1017.5 -0.5 61
2019-10-17 03:00:00 17.1 5 Oeste 15 Oeste 0 1017.7 -0.5 64
2019-10-17 02:00:00 17.5 0 Calma 7 Oeste 0 1017.7 -0.3 63
2019-10-17 01:00:00 17.8 2 Noroeste 12 Oeste 0 1018 0.5 61
2019-10-17 00:00:00 18.4 0 Calma 4 Oeste 0 1018.2 0.9 62
2019-10-16 23:00:00 19.2 0 Calma 6 Este 0 1018 1 60
2019-10-16 22:00:00 19.7 2 Oeste 8 Oeste 0 1017.5 0.8 57
2019-10-16 21:00:00 20.3 5 Oeste 16 Oeste 0 1017.3 0.4 55
2019-10-16 20:00:00 21 5 Oeste 14 Oeste 0 1017 -0.5 56
2019-10-16 19:00:00 21.7 4 Sudoeste 15 Sudoeste 0 1016.7 -1.6 59
2019-10-16 18:00:00 21.3 5 Sudoeste 21 Sudoeste 0 1016.9 -2.1 65
2019-10-16 17:00:00 20.1 12 Sudoeste 18 Sudoeste 0 1017.5 -2.2 77
2019-10-16 16:00:00 19.9 15 Sudoeste 20 Sur 0 1018.3 -2 78
2019-10-16 15:00:00 20.1 10 Sudoeste 15 Sudoeste 0 1019 -1.6 80
2019-10-16 14:00:00 20 8 Sur 12 Sur 0 1019.7 -0.6 80
2019-10-16 13:00:00 19.9 7 Sudeste 11 Sudeste 0 1020.3 0.3 74
2019-10-16 12:00:00 20.1 8 Sudeste 11 Sudeste 0 1020.6 1.2 69
2019-10-16 11:00:00 19.1 0 Calma 12 Oeste 0 1020.3 1.2 55
2019-10-16 10:00:00 17.2 6 Noroeste 18 Oeste 0 1020 1.1 56
2019-10-16 09:00:00 15.3 10 Noroeste 17 Noroeste 0 1019.4 0.4 57
2019-10-16 08:00:00 15.7 8 Noroeste 15 Oeste 0 1019.1 0 56
2019-10-16 07:00:00 15.9 9 Noroeste 14 Noroeste 0 1018.9 -0.6 55
2019-10-16 06:00:00 16.2 8 Noroeste 14 Noroeste 0 1019 -0.8 53
2019-10-16 05:00:00 16.5 8 Noroeste 13 Noroeste 0 1019.1 -0.5 53
2019-10-16 04:00:00 17.2 4 Noroeste 9 Noroeste 0 1019.5 -0.3 53
2019-10-16 03:00:00 17.7 4 Noroeste 10 Noroeste 0 1019.8 0 51
2019-10-16 02:00:00 18.2 5 Noroeste 15 Oeste 0 1019.6 0.2 52
2019-10-16 01:00:00 18.4 5 Noroeste 15 Oeste 0 1019.8 0.8 52
2019-10-16 00:00:00 19.1 6 Noroeste 12 Noroeste 0 1019.8 1.1 52
2019-10-15 23:00:00 19.5 5 Noroeste 12 Oeste 0 1019.4 1.1 51
2019-10-15 22:00:00 20 2 Oeste 9 Norte 0 1019 0.9 52
2019-10-15 21:00:00 20.5 2 Oeste 14 Norte 0 1018.7 0.8 52
2019-10-15 20:00:00 20.9 2 Sur 14 Sudeste 0 1018.3 0.5 65
2019-10-15 19:00:00 22.3 5 Nordeste 18 Sudoeste 0 1018.1 -0.1 47
2019-10-15 18:00:00 22.5 10 Sur 23 Nordeste 0 1017.9 -1 47
2019-10-15 17:00:00 22.8 6 Nordeste 26 Oeste 0 1017.8 -1.7 39
2019-10-15 16:00:00 22 4 Noroeste 28 Sur 0 1018.2 -1.7 44
2019-10-15 15:00:00 20.1 15 Sur 36 Sur 0 1018.9 -0.9 64
2019-10-15 14:00:00 21.9 3 Nordeste 29 Nordeste 0 1019.5 -0.4 45
2019-10-15 13:00:00 20.9 7 Nordeste 34 Nordeste 0 1019.9 0.3 46
2019-10-15 12:00:00 20.3 12 Nordeste 39 Nordeste 0 1019.8 0.7 51
2019-10-15 11:00:00 18.9 3 Oeste 23 Nordeste 0 1019.9 1.3 56
2019-10-15 10:00:00 18.2 4 Oeste 15 Oeste 0 1019.6 1 64
2019-10-15 09:00:00 17.4 2 Este 24 Oeste 0 1019.1 0.4 66
2019-10-15 08:00:00 17.6 8 Oeste 19 Oeste 0 1018.6 0 67
2019-10-15 07:00:00 18.1 2 Norte 14 Este 0 1018.6 0.1 64
2019-10-15 06:00:00 18.5 6 Norte 24 Noroeste 0 1018.7 0.1 63
2019-10-15 05:00:00 18.9 5 Norte 27 Norte 0 1018.6 0.2 63
2019-10-15 04:00:00 19.7 7 Noroeste 24 Norte 0 1018.5 0.1 59
2019-10-15 03:00:00 19.3 0 Calma 10 Oeste 0 1018.6 0.1 69
2019-10-15 02:00:00 19.5 3 Oeste 15 Oeste 0 1018.4 0.4 73
2019-10-15 01:00:00 19.7 0 Calma 18 Oeste 0 1018.4 0.8 77
2019-10-15 00:00:00 20.2 5 Norte 22 Oeste 0 1018.5 1.3 73
2019-10-14 23:00:00 20.6 8 Oeste 24 Oeste 0 1018 2 70
2019-10-14 22:00:00 20.8 10 Oeste 26 Oeste 0 1017.6 2.4 65
2019-10-14 21:00:00 21.7 8 Noroeste 26 Oeste 0 1017.2 2.2 52
2019-10-14 20:00:00 22.3 9 Oeste 40 Oeste 0 1016 1.2 57
2019-10-14 19:00:00 23.1 10 Oeste 41 Oeste 0 1015.2 0.5 60
2019-10-14 18:00:00 23.6 11 Oeste 41 Oeste 0 1015 -0.2 65
2019-10-14 17:00:00 23.6 9 Oeste 42 Oeste 0 1014.8 -0.7 71
2019-10-14 16:00:00 22.8 9 Oeste 36 Sudoeste 0 1014.7 -1.3 79
2019-10-14 15:00:00 22.4 9 Sudoeste 35 Sudoeste 0 1015.2 -0.1 82
2019-10-14 14:00:00 21.7 8 Sudoeste 32 Sudoeste 0 1015.5 0.5 87
2019-10-14 13:00:00 21.2 9 Sudoeste 30 Oeste 0 1016 1.3 88
2019-10-14 12:00:00 22.1 7 Oeste 32 Oeste 0 1015.3 1.3 83
2019-10-14 11:00:00 22.5 9 Oeste 32 Oeste 0 1015 1.3 80
2019-10-14 10:00:00 21.8 5 Oeste 22 Oeste 0 1014.7 0.7 85
2019-10-14 09:00:00 21.2 4 Oeste 24 Oeste 0 1014 0 90
2019-10-14 08:00:00 21.3 0 Calma 9 Noroeste 0 1013.7 0.3 96
2019-10-14 07:00:00 21.4 3 Noroeste 15 Oeste 0 1014 0.8 96
2019-10-14 06:00:00 21.6 6 Oeste 14 Oeste 0.1 1014 0.3 94
2019-10-14 05:00:00 21.3 3 Oeste 12 Oeste 0.1 1013.4 -0.3 93
2019-10-14 04:00:00 21.3 8 Noroeste 12 Noroeste 0.2 1013.2 -1 93
2019-10-14 03:00:00 21.6 4 Oeste 13 Este 0 1013.7 -0.8 94
2019-10-14 02:00:00 21.7 4 Este 13 Este 0 1013.7 -0.7 93
2019-10-14 01:00:00 21.8 3 Oeste 12 Noroeste 0 1014.2 0.4 93
2019-10-14 00:00:00 21.8 5 Noroeste 12 Oeste 0 1014.5 0.9 93
2019-10-13 23:00:00 21.8 0 Calma 7 Este 0 1014.4 0.8 93
2019-10-13 22:00:00 22 0 Calma 8 Sur 0 1013.8 0 92
2019-10-13 21:00:00 22.4 3 Sur 9 Sur 0 1013.6 -0.1 92
2019-10-13 20:00:00 23 6 Sudeste 17 Sudeste 0 1013.6 -0.4 90
2019-10-13 19:00:00 23.8 5 Sudeste 12 Sudeste 0 1013.8 -0.5 87
2019-10-13 18:00:00 23.8 9 Sudeste 15 Sudeste 0 1013.7 -1.3 87
2019-10-13 17:00:00 23.7 11 Sudeste 14 Sudeste 0 1014 -1.8 88
2019-10-13 16:00:00 23.5 9 Este 17 Sudeste 0 1014.3 -2.1 88
2019-10-13 15:00:00 23.3 14 Sudeste 17 Este 0 1015 -1.6 88
2019-10-13 14:00:00 23.2 10 Este 14 Sudeste 0 1015.8 -0.7 89
2019-10-13 13:00:00 22.4 8 Este 12 Este 0 1016.4 0.6 93
2019-10-13 12:00:00 22 4 Sudeste 8 Sudeste 0 1016.6 1.5 95
2019-10-13 11:00:00 21.4 2 Sudeste 5 Norte 0 1016.5 1.5 94
2019-10-13 10:00:00 20.3 3 Noroeste 6 Noroeste 0 1015.8 0.9 92
2019-10-13 09:00:00 19.7 4 Noroeste 9 Noroeste 0 1015.1 0.5 92
2019-10-13 08:00:00 19.7 5 Noroeste 8 Noroeste 0 1015 0.2 92
2019-10-13 07:00:00 19.8 5 Noroeste 9 Noroeste 0 1014.9 -0.3 92
2019-10-13 06:00:00 20.1 3 Noroeste 9 Oeste 0 1014.6 -1 91
2019-10-13 05:00:00 20.2 6 Oeste 10 Oeste 0 1014.8 -1.2 91
2019-10-13 04:00:00 20.2 7 Oeste 12 Oeste 0 1015.2 -0.7 91
2019-10-13 03:00:00 20.7 3 Oeste 10 Oeste 0 1015.6 -0.6 91
2019-10-13 02:00:00 20.8 7 Noroeste 14 Oeste 0 1016 0 90
2019-10-13 01:00:00 21.7 2 Noroeste 8 Oeste 0 1015.9 0.5 90
2019-10-13 00:00:00 22.1 0 Calma 6 Oeste 0 1016.2 0.8 90
2019-10-12 23:00:00 22.3 3 Oeste 6 Oeste 0 1016 0.9 90
2019-10-12 22:00:00 22.8 3 Sur 7 Sur 0 1015.4 0.6 90
2019-10-12 21:00:00 22.6 0 Calma 3 Sudeste 0 1015.4 0.6 89
2019-10-12 20:00:00 23.2 0 Calma 6 Sudeste 0 1015.1 0 86
2019-10-12 19:00:00 24 0 Calma 7 Sudeste 0 1014.8 -0.4 85
2019-10-12 18:00:00 24.3 4 Este 9 Sudeste 0 1014.8 -0.8 85
2019-10-12 17:00:00 24.3 5 Este 11 Sudeste 0 1015.1 -1.2 87
2019-10-12 16:00:00 24.4 9 Sudeste 12 Sudeste 0 1015.2 -1.6 87
2019-10-12 15:00:00 24.1 8 Sudeste 12 Sudeste 0 1015.6 -1.5 88
2019-10-12 14:00:00 23.9 5 Sudeste 8 Sudeste 0 1016.3 -0.5 89
2019-10-12 13:00:00 23.4 5 Sudeste 7 Sudeste 0 1016.8 0.7 90
2019-10-12 12:00:00 23 0 Calma 8 Sudeste 0 1017.1 1.4 91
2019-10-12 11:00:00 22.6 2 Sudoeste 8 Oeste 0 1016.8 1 88
2019-10-12 10:00:00 22.4 0 Calma 9 Oeste 0 1016.1 0.6 88
2019-10-12 09:00:00 21.9 4 Oeste 11 Oeste 0 1015.7 0.4 88
2019-10-12 08:00:00 22 5 Oeste 12 Oeste 0 1015.8 0.1 87
2019-10-12 07:00:00 21.7 5 Noroeste 15 Oeste 0 1015.5 -0.7 87
2019-10-12 06:00:00 21.7 6 Noroeste 12 Oeste 0 1015.3 -1.7 87
2019-10-12 05:00:00 21.9 6 Oeste 10 Oeste 0 1015.7 -1.8 87
2019-10-12 04:00:00 22.5 4 Nordeste 8 Nordeste 0 1016.2 -1.4 87
2019-10-12 03:00:00 22.3 5 Noroeste 8 Noroeste 0 1017 -0.8 86
2019-10-12 02:00:00 22 4 Noroeste 9 Noroeste 0 1017.5 -0.6 86
2019-10-12 01:00:00 22 4 Oeste 9 Oeste 0 1017.6 -0.1 86
2019-10-12 00:00:00 22.3 2 Norte 9 Oeste 0 1017.8 0.8 85
2019-10-11 23:00:00 22.5 4 Norte 7 Nordeste 0 1018.1 1 87
2019-10-11 22:00:00 22.6 3 Sudeste 6 Sur 0 1017.7 0.8 85
2019-10-11 21:00:00 22.7 4 Nordeste 6 Nordeste 0 1017 -0.3 85
2019-10-11 20:00:00 23 0 Calma 9 Este 0 1017.1 -0.5 84
2019-10-11 19:00:00 23.3 5 Nordeste 8 Nordeste 0 1016.9 -1.2 82
2019-10-11 18:00:00 23.7 4 Este 10 Sudeste 0 1017.3 -1.4 80
2019-10-11 17:00:00 24 5 Este 9 Este 0 1017.6 -1.7 79
2019-10-11 16:00:00 24.3 5 Sudeste 9 Sudeste 0 1018.1 -1.9 79
2019-10-11 15:00:00 23.9 6 Sudeste 17 Sudeste 0 1018.7 -1.7 79
2019-10-11 14:00:00 24.1 6 Este 12 Nordeste 0 1019.3 -0.9 78
2019-10-11 13:00:00 23.6 5 Nordeste 10 Nordeste 0 1020 0.3 80
2019-10-11 12:00:00 23.2 3 Nordeste 9 Este 0 1020.4 1.7 84
2019-10-11 11:00:00 23 6 Nordeste 9 Nordeste 0 1020.2 1.5 88
2019-10-11 10:00:00 22.2 4 Este 12 Nordeste 0 1019.7 1.2 90
2019-10-11 09:00:00 21.9 4 Nordeste 8 Nordeste 0 1018.7 0.4 90
2019-10-11 08:00:00 22 0 Calma 8 Este 0 1018.7 0.2 90
2019-10-11 07:00:00 22.1 5 Este 11 Nordeste 0 1018.5 -0.2 91
2019-10-11 06:00:00 22.2 6 Nordeste 16 Este 0 1018.3 -0.6 90
2019-10-11 05:00:00 22.2 8 Nordeste 14 Este 0 1018.5 -0.8 92
2019-10-11 04:00:00 22.6 12 Este 25 Este 0 1018.7 -0.5 91
2019-10-11 03:00:00 22.6 13 Este 19 Este 0 1018.9 -0.3 90
2019-10-11 02:00:00 22.5 10 Este 19 Este 0 1019.3 0.2 90
2019-10-11 01:00:00 22.5 10 Este 17 Nordeste 0 1019.2 0.6 90
2019-10-11 00:00:00 22.5 9 Nordeste 15 Nordeste 0 1019.2 1.1 90
2019-10-10 23:00:00 22.5 8 Nordeste 16 Nordeste 0 1019.1 1.4 90
2019-10-10 22:00:00 22.5 8 Este 15 Nordeste 0 1018.6 1 90
2019-10-10 21:00:00 22.6 10 Este 18 Nordeste 0 1018.1 0.6 89
2019-10-10 20:00:00 22.9 11 Este 17 Este 0 1017.7 0 88
2019-10-10 19:00:00 23.6 12 Este 22 Este 0 1017.6 -0.4 84
2019-10-10 18:00:00 24.1 10 Este 17 Este 0 1017.5 -1.2 84
2019-10-10 17:00:00 24.1 11 Este 18 Nordeste 0 1017.7 -1.4 84
2019-10-10 16:00:00 23.8 10 Nordeste 17 Nordeste 0 1018 -1.5 83
2019-10-10 15:00:00 24.1 8 Este 14 Este 0 1018.7 -0.8 84
2019-10-10 14:00:00 24 9 Este 16 Este 0 1019.1 -0.3 84
2019-10-10 13:00:00 23.8 12 Este 19 Este 0 1019.5 0.7 85
2019-10-10 12:00:00 23.3 13 Este 50 Este 0 1019.5 1.5 87
2019-10-10 11:00:00 22.9 14 Este 27 Este 0 1019.4 2 87
2019-10-10 10:00:00 22.1 15 Nordeste 23 Este 0 1018.8 1.8 89
2019-10-10 09:00:00 21.3 11 Nordeste 22 Este 0 1018 1.2 90
2019-10-10 08:00:00 21.2 13 Este 20 Este 0 1017.4 0.7 93
2019-10-10 07:00:00 21.2 10 Nordeste 18 Nordeste 0 1017 0.6 93
2019-10-10 06:00:00 20.9 9 Nordeste 15 Este 0 1016.8 0.3 88
2019-10-10 05:00:00 19.9 3 Norte 11 Este 0 1016.7 0.3 90
2019-10-10 04:00:00 20.9 2 Este 6 Este 0 1016.4 0 90
2019-10-10 03:00:00 20.3 3 Noroeste 8 Noroeste 0 1016.5 0.4 86
2019-10-10 02:00:00 20.4 4 Noroeste 8 Norte 0 1016.4 0.4 87
2019-10-10 01:00:00 20.5 3 Oeste 6 Oeste 0 1016.4 0.8 87
2019-10-10 00:00:00 20.8 2 Oeste 5 Oeste 0 1016.1 0.8 93
2019-10-09 23:00:00 21.9 3 Sur 6 Sur 0 1016 1.1 95
2019-10-09 22:00:00 21.8 3 Sudoeste 6 Sudoeste 0 1015.6 1.1 95
2019-10-09 21:00:00 22.1 4 Sudoeste 10 Sur 0 1015.3 0.5 95
2019-10-09 20:00:00 22.5 4 Sur 10 Sudoeste 0 1014.9 0 93
2019-10-09 19:00:00 23.1 8 Sur 11 Sur 0 1014.5 -0.6 91
2019-10-09 18:00:00 23.1 7 Sudoeste 10 Sudoeste 0 1014.8 -0.6 90
2019-10-09 17:00:00 23.5 5 Sur 9 Sur 0 1014.9 -1.2 86
2019-10-09 16:00:00 23.4 7 Sudeste 9 Sudeste 0 1015.1 -1.6 85
2019-10-09 15:00:00 23.1 7 Este 11 Sudeste 0 1015.4 -1.7 85
2019-10-09 14:00:00 22.9 9 Sudeste 14 Sudeste 0 1016.1 -0.9 83
2019-10-09 13:00:00 22.4 9 Sudeste 14 Este 0 1016.7 0.1 81
2019-10-09 12:00:00 22.1 8 Este 14 Sudeste 0 1017.1 1.2 82
2019-10-09 11:00:00 21.7 9 Este 13 Sudeste 0 1017 1.3 81
2019-10-09 10:00:00 20.5 0 Calma 7 Noroeste 0 1016.6 1.1 77
2019-10-09 09:00:00 19.9 3 Noroeste 8 Noroeste 0 1015.9 0.7 77
2019-10-09 08:00:00 19.7 3 Noroeste 6 Noroeste 0 1015.7 0.3 76
2019-10-09 07:00:00 20 3 Noroeste 7 Noroeste 0 1015.5 -0.3 76
2019-10-09 06:00:00 20.2 4 Noroeste 8 Noroeste 0 1015.2 -1.1 74
2019-10-09 05:00:00 20.1 5 Noroeste 11 Noroeste 0 1015.4 -1.1 79
2019-10-09 04:00:00 20.7 5 Noroeste 10 Oeste 0 1015.8 -1.1 79
2019-10-09 03:00:00 20.9 5 Oeste 10 Oeste 0 1016.3 -1 78
2019-10-09 02:00:00 21 0 Calma 7 Oeste 0 1016.5 -0.8 79
2019-10-09 01:00:00 21.7 0 Calma 10 Este 0 1016.9 0 79
2019-10-09 00:00:00 22 5 Este 9 Este 0 1017.3 0.7 81
2019-10-08 23:00:00 22.3 6 Este 11 Este 0 1017.3 0.9 78
2019-10-08 22:00:00 22.6 7 Este 13 Nordeste 0 1016.9 0.5 79
2019-10-08 21:00:00 22.9 10 Este 16 Este 0 1016.6 -0.1 77
2019-10-08 20:00:00 23.2 12 Este 20 Este 0 1016.4 -0.5 77
2019-10-08 19:00:00 23.8 13 Este 23 Este 0 1016.4 -1.3 77
2019-10-08 18:00:00 23.9 13 Este 19 Este 0 1016.7 -1.4 83
2019-10-08 17:00:00 24.2 11 Este 16 Este 0 1016.9 -1.8 82
2019-10-08 16:00:00 24.1 8 Este 13 Nordeste 0 1017.7 -1.6 87
2019-10-08 15:00:00 23.9 8 Este 14 Este 0 1018.1 -1.2 87
2019-10-08 14:00:00 23.6 8 Este 18 Este 0 1018.7 -0.4 86
2019-10-08 13:00:00 23.6 11 Este 24 Este 0 1019.3 0.5 87
2019-10-08 12:00:00 23.3 17 Este 28 Este 0 1019.3 1.4 87
2019-10-08 11:00:00 22.9 17 Este 25 Este 0 1019.1 1.7 85
2019-10-08 10:00:00 22.5 11 Este 23 Nordeste 0 1018.8 1.9 89
2019-10-08 09:00:00 22 9 Este 17 Nordeste 0 1017.9 1.3 92
2019-10-08 08:00:00 21.8 9 Nordeste 19 Este 0 1017.4 1.2 92
2019-10-08 07:00:00 21.9 13 Este 22 Este 0 1016.9 0.5 92
2019-10-08 06:00:00 21.8 13 Este 26 Nordeste 0 1016.6 0.3 92
2019-10-08 05:00:00 22 19 Este 28 Este 0 1016.2 0.3 92
2019-10-08 04:00:00 22.1 15 Este 27 Este 0 1016.4 0.8 90
2019-10-08 03:00:00 22.3 20 Este 29 Este 0 1016.3 1 90
2019-10-08 02:00:00 21.2 0 Calma 7 Sudeste 0 1015.9 0.7 95
2019-10-08 01:00:00 20.8 0 Calma 4 Sudoeste 0 1015.6 0.7 92
2019-10-08 00:00:00 21 0 Calma 4 Este 0 1015.3 0.9 94
2019-10-07 23:00:00 21.4 0 Calma 6 Norte 0 1015.2 0.9 96
2019-10-07 22:00:00 21.9 3 Nordeste 6 Nordeste 0 1014.9 0.8 95
2019-10-07 21:00:00 22.1 2 Nordeste 5 Nordeste 0 1014.4 0.4 95
2019-10-07 20:00:00 22.4 2 Nordeste 6 Nordeste 0 1014.3 0.2 93
2019-10-07 19:00:00 23.2 4 Nordeste 9 Nordeste 0 1014.1 0 89
2019-10-07 18:00:00 23.3 5 Este 9 Sudeste 0 1014 -0.5 90
2019-10-07 17:00:00 23.1 5 Este 12 Sudeste 0 1014.1 -0.9 88
2019-10-07 16:00:00 22.1 2 Sur 13 Sur 0 1014.1 -1.4 94
2019-10-07 15:00:00 22.3 7 Sur 13 Sur 0 1014.5 -1.1 96
2019-10-07 14:00:00 22.2 7 Sur 10 Sur 0 1015 -0.7 96
2019-10-07 13:00:00 22 5 Sudeste 8 Nordeste 0 1015.5 0 96
2019-10-07 12:00:00 21 3 Sudeste 8 Nordeste 0 1015.6 0.4 96
2019-10-07 11:00:00 20.7 4 Sur 8 Sur 0 1015.7 1 96
2019-10-07 10:00:00 19.7 0 Calma 4 Norte 0 1015.5 0.9 97
2019-10-07 09:00:00 19.4 0 Calma 8 Oeste 0 1015.2 0.8 98
2019-10-07 08:00:00 19.3 0 Calma 4 Norte 0 1014.7 0.2 99
2019-10-07 07:00:00 19.8 3 Nordeste 6 Nordeste 0 1014.6 -0.4 99
2019-10-07 06:00:00 19.8 3 Nordeste 8 Este 0 1014.4 -1.5 98
2019-10-07 05:00:00 19.9 0 Calma 9 Sur 0 1014.5 -1.5 97
2019-10-07 04:00:00 19.9 3 Noroeste 8 Noroeste 0 1015 -1.5 96
2019-10-07 03:00:00 20.2 0 Calma 5 Noroeste 0 1015.9 -0.9 98
2019-10-07 02:00:00 20 0 Calma 9 Oeste 0 1016 -0.6 98
2019-10-07 01:00:00 20.5 0 Calma 5 Norte 0 1016.5 0.2 99
2019-10-07 00:00:00 20.6 3 Nordeste 9 Este 0 1016.8 1 99
2019-10-06 23:00:00 20.7 4 Nordeste 14 Este 0 1016.6 1 98
2019-10-06 22:00:00 20.7 9 Este 15 Este 0 1016.3 1.1 98
2019-10-06 21:00:00 21.1 10 Este 17 Nordeste 0 1015.8 0.7 96
2019-10-06 20:00:00 21.4 8 Nordeste 15 Nordeste 0 1015.6 0.3 93
2019-10-06 19:00:00 22.6 10 Nordeste 18 Sur 0 1015.2 -0.9 87
2019-10-06 18:00:00 24.3 8 Sur 15 Sudoeste 0 1015.1 -1.6 74
2019-10-06 17:00:00 23.6 7 Sudoeste 25 Sudoeste 0 1015.3 -2.1 72
2019-10-06 16:00:00 20.5 6 Sur 21 Sudoeste 0 1016.1 -1.5 98
2019-10-06 15:00:00 19.7 13 Sudoeste 19 Sudoeste 0 1016.7 -0.9 99
2019-10-06 14:00:00 19.9 9 Sudoeste 16 Sur 0 1017.4 0 99
2019-10-06 13:00:00 20.5 11 Sur 15 Sur 0 1017.6 0.8 98
2019-10-06 12:00:00 20.6 6 Sudoeste 11 Sudoeste 0 1017.6 1.3 98
2019-10-06 11:00:00 20.4 0 Calma 5 Nordeste 0 1017.4 1.4 99
2019-10-06 10:00:00 20.1 4 Norte 8 Noroeste 0 1016.8 1.4 99
2019-10-06 09:00:00 19.8 0 Calma 9 Este 0 1016.3 0.8 99
2019-10-06 08:00:00 19.8 5 Este 14 Este 0 1016 1 99
2019-10-06 07:00:00 20 10 Este 14 Este 0 1015.4 0.3 99
2019-10-06 06:00:00 19.9 10 Este 15 Nordeste 0 1015.5 0.4 99
2019-10-06 05:00:00 20.3 7 Nordeste 14 Nordeste 0 1015 0.1 99
2019-10-06 04:00:00 20.6 7 Nordeste 20 Nordeste 0 1015.1 0.4 95
2019-10-06 03:00:00 20.2 3 Nordeste 8 Nordeste 0 1015.1 0.5 90
2019-10-06 02:00:00 20.2 2 Norte 7 Nordeste 0 1014.9 0.4 95
2019-10-06 01:00:00 20.6 4 Nordeste 10 Nordeste 0 1014.7 0.6 94
2019-10-06 00:00:00 21.1 4 Sudoeste 6 Sudoeste 0 1014.6 0.9 92
2019-10-05 23:00:00 21.2 0 Calma 6 Sur 0 1014.5 1 93
2019-10-05 22:00:00 21.2 0 Calma 8 Nordeste 0 1014.1 1 93
2019-10-05 21:00:00 21.7 6 Nordeste 14 Nordeste 0 1013.7 0.4 91
2019-10-05 20:00:00 23.7 3 Sudoeste 15 Oeste 0 1013.5 0 79
2019-10-05 19:00:00 24.5 4 Sudoeste 12 Sudoeste 0 1013.1 -0.7 77
2019-10-05 18:00:00 22.4 8 Sudoeste 15 Sudoeste 0 1013.3 -1 88
2019-10-05 17:00:00 22.4 3 Sudoeste 15 Sur 0 1013.5 -1.4 86
2019-10-05 16:00:00 21.4 11 Sudoeste 18 Sur 0 1013.8 -1.5 94
2019-10-05 15:00:00 21.8 11 Sur 15 Sur 0 1014.3 -0.9 92
2019-10-05 14:00:00 21.2 7 Sur 12 Sur 0 1014.9 0.1 91
2019-10-05 13:00:00 21.1 2 Sudeste 6 Sur 0 1015.3 0.9 90
2019-10-05 12:00:00 20.7 3 Sudeste 7 Sudoeste 0 1015.2 1.3 90
2019-10-05 11:00:00 20.3 4 Sur 9 Sur 0 1014.8 1.4 89
2019-10-05 10:00:00 19.6 2 Sur 4 Nordeste 0 1014.4 1.3 82
2019-10-05 09:00:00 18.7 0 Calma 3 Oeste 0 1013.9 0.6 80
2019-10-05 08:00:00 18.7 0 Calma 6 Noroeste 0 1013.4 0 79
2019-10-05 07:00:00 18.9 3 Noroeste 10 Oeste 0 1013.1 -0.7 79
2019-10-05 06:00:00 19.2 3 Noroeste 7 Noroeste 0 1013.3 -0.9 79
2019-10-05 05:00:00 19.3 4 Noroeste 6 Noroeste 0 1013.4 -0.8 79
2019-10-05 04:00:00 19.5 0 Calma 3 Noroeste 0 1013.8 -0.7 81
2019-10-05 03:00:00 19.4 2 Oeste 4 Sudoeste 0 1014.2 -0.4 82
2019-10-05 02:00:00 19.3 0 Calma 3 Nordeste 0 1014.2 -0.7 90
2019-10-05 01:00:00 20.3 0 Calma 10 Sudeste 0 1014.5 -0.4 87
2019-10-05 00:00:00 20 3 Norte 5 Norte 0 1014.6 0 87
2019-10-04 23:00:00 20.4 4 Nordeste 9 Nordeste 0 1014.9 0.4 92
2019-10-04 22:00:00 20.6 2 Nordeste 10 Sudoeste 0 1014.9 0.5 87
2019-10-04 21:00:00 21.1 5 Sudoeste 11 Sudoeste 0 1014.6 -0.1 87
2019-10-04 20:00:00 21.5 4 Sudoeste 11 Sudoeste 0 1014.5 -0.3 81
2019-10-04 19:00:00 21.8 6 Sudoeste 11 Sudoeste 0 1014.4 -0.8 85
2019-10-04 18:00:00 22.4 4 Sudoeste 6 Sur 0 1014.7 -1.1 89
2019-10-04 17:00:00 22.3 6 Sur 13 Sur 0 1014.8 -1.7 89
2019-10-04 16:00:00 22.7 9 Sur 13 Sur 0 1015.2 -1.6 86
2019-10-04 15:00:00 21.7 10 Sur 18 Sur 0 1015.8 -1.3 85
2019-10-04 14:00:00 21.7 13 Sudoeste 17 Sur 0 1016.5 -0.3 83
2019-10-04 13:00:00 21.7 11 Sur 15 Sur 0 1016.8 0.4 82
2019-10-04 12:00:00 21.6 6 Sur 11 Sur 0 1017.1 1 83
2019-10-04 11:00:00 21.3 7 Sur 11 Sur 0 1016.8 1.1 81
2019-10-04 10:00:00 20.9 4 Oeste 9 Oeste 0 1016.4 0.9 75
2019-10-04 09:00:00 19.2 6 Oeste 12 Noroeste 0 1016.1 0.8 79
2019-10-04 08:00:00 20.3 4 Oeste 9 Oeste 0 1015.7 0.3 81
2019-10-04 07:00:00 20.5 2 Oeste 10 Noroeste 0 1015.5 0.2 82
2019-10-04 06:00:00 20.9 4 Oeste 10 Sudoeste 0 1015.3 0.1 85
2019-10-04 05:00:00 20.9 2 Sudoeste 21 Sudeste 0 1015.4 -0.1 83
2019-10-04 04:00:00 22.1 17 Sudeste 24 Sudeste 0 1015.3 -0.6 76
2019-10-04 03:00:00 24.2 5 Oeste 15 Oeste 0 1015.2 -0.7 51
2019-10-04 02:00:00 24.4 5 Oeste 18 Noroeste 0 1015.5 -0.3 53
2019-10-04 01:00:00 22.7 2 Oeste 13 Oeste 0 1015.9 0.3 70
2019-10-04 00:00:00 24.5 5 Oeste 15 Sudoeste 0 1015.9 0.5 54
2019-10-03 23:00:00 25 4 Oeste 12 Oeste 0 1015.8 0.6 52
2019-10-03 22:00:00 21.9 3 Sudoeste 8 Sudoeste 0 1015.6 0.6 81
2019-10-03 21:00:00 22.1 2 Sudoeste 15 Sur 0 1015.4 0.1 82
2019-10-03 20:00:00 23.2 5 Sudoeste 14 Sudoeste 0 1015.2 -0.4 76
2019-10-03 19:00:00 25.1 4 Sudoeste 15 Sudoeste 0 1015 -0.8 69
2019-10-03 18:00:00 24.9 3 Sudoeste 22 Oeste 0 1015.3 -0.8 70
2019-10-03 17:00:00 26.4 6 Oeste 26 Sur 0 1015.6 -1.2 63
2019-10-03 16:00:00 23.2 7 Sudoeste 28 Sur 0 1015.8 -1.4 79
2019-10-03 15:00:00 22.3 10 Sudoeste 25 Sudoeste 0 1016.1 -1.6 81
2019-10-03 14:00:00 24.4 10 Sur 21 Sur 0 1016.8 -0.8 66
2019-10-03 13:00:00 24.4 8 Sudoeste 25 Sur 0 1017.2 0.1 61
2019-10-03 12:00:00 22.5 2 Nordeste 10 Nordeste 0 1017.7 1.3 70
2019-10-03 11:00:00 21.6 2 Sur 7 Nordeste 0 1017.6 1.5 79
2019-10-03 10:00:00 21 3 Nordeste 8 Sudeste 0 1017.1 1.4 79
2019-10-03 09:00:00 20.4 2 Oeste 7 Sur 0 1016.4 0.8 77
2019-10-03 08:00:00 21.1 3 Nordeste 22 Nordeste 0 1016.1 0.5 78
2019-10-03 07:00:00 21.5 4 Noroeste 12 Noroeste 0 1015.7 0 59
2019-10-03 06:00:00 22.4 3 Oeste 16 Oeste 0 1015.6 -0.3 57
2019-10-03 05:00:00 21.7 5 Noroeste 12 Noroeste 0 1015.6 -0.3 64
2019-10-03 04:00:00 20 0 Calma 18 Sudoeste 0 1015.7 -0.3 86
2019-10-03 03:00:00 21.9 6 Noroeste 12 Noroeste 0 1015.9 0 57
2019-10-03 02:00:00 21.4 3 Sudoeste 14 Sur 0 1015.9 0.3 68
2019-10-03 01:00:00 22.6 5 Noroeste 13 Noroeste 0 1016 0.9 57
2019-10-03 00:00:00 21.4 3 Norte 13 Nordeste 0 1015.9 1.4 81
2019-10-02 23:00:00 21.8 3 Sudoeste 12 Sur 0 1015.6 1.5 80
2019-10-02 22:00:00 23.3 4 Sudoeste 9 Oeste 0 1015.1 1.4 65
2019-10-02 21:00:00 23.5 4 Sudoeste 11 Sudoeste 0 1014.5 1.1 68
2019-10-02 20:00:00 25.3 2 Oeste 21 Sudoeste 0 1014.1 0.4 55
2019-10-02 19:00:00 25.4 6 Sudoeste 32 Sur 0 1013.7 0.1 58
2019-10-02 18:00:00 24.3 9 Sudoeste 33 Sudoeste 0 1013.4 -0.1 65
2019-10-02 17:00:00 27.8 4 Sudoeste 20 Sur 0 1013.7 -0.2 50
2019-10-02 16:00:00 24.2 18 Sur 33 Sudoeste 0 1013.6 -0.9 70
2019-10-02 15:00:00 25.5 6 Sudoeste 21 Sur 0 1013.5 -1.4 63
2019-10-02 14:00:00 24.1 6 Sudoeste 28 Sur 0 1013.9 -1.3 69
2019-10-02 13:00:00 21.5 22 Sur 31 Sur 0 1014.5 -0.2 86
2019-10-02 12:00:00 23.3 8 Sudoeste 21 Sudoeste 0 1014.9 0.8 71
2019-10-02 11:00:00 24.1 2 Sudeste 13 Oeste 0 1015.2 1.2 62
2019-10-02 10:00:00 24 4 Oeste 14 Noroeste 0 1014.7 1 56
2019-10-02 09:00:00 23.8 3 Sudoeste 14 Noroeste 0 1014.1 0.5 56
2019-10-02 08:00:00 23.6 0 Calma 18 Sudeste 0 1014 0.7 57
2019-10-02 07:00:00 24.2 0 Calma 27 Norte 0 1013.7 0.2 56
2019-10-02 06:00:00 24.8 5 Norte 33 Oeste 0 1013.6 -0.6 54
2019-10-02 05:00:00 24.8 0 Calma 26 Sudeste 0 1013.3 -1.2 56
2019-10-02 04:00:00 25.3 7 Sur 31 Noroeste 0 1013.5 -0.9 55
2019-10-02 03:00:00 26.1 12 Noroeste 29 Norte 0 1014.2 0.2 52
2019-10-02 02:00:00 26.6 7 Noroeste 22 Noroeste 0 1014.5 0.9 51
2019-10-02 01:00:00 26.9 9 Norte 41 Norte 0 1014.4 1.2 51
2019-10-02 00:00:00 26.9 6 Noroeste 24 Noroeste 0 1014 1.4 52
2019-10-01 23:00:00 27.6 10 Noroeste 19 Oeste 0 1013.6 1.1 52
2019-10-01 22:00:00 26.3 4 Oeste 20 Sudoeste 0 1013.2 1.2 58
2019-10-01 21:00:00 24.7 5 Sudoeste 21 Sudoeste 0 1012.6 1.2 69
2019-10-01 20:00:00 25.1 3 Oeste 15 Sudoeste 0 1012.5 1 69
2019-10-01 19:00:00 27.2 5 Oeste 19 Sur 0 1012 0.4 59
2019-10-01 18:00:00 26.7 6 Sudoeste 22 Sudoeste 0 1011.4 -0.7 62
2019-10-01 17:00:00 26.5 5 Sudoeste 20 Sur 0 1011.5 -1.3 61
2019-10-01 16:00:00 27.4 5 Oeste 22 Oeste 0 1011.6 -1.7 55
2019-10-01 15:00:00 26.8 6 Oeste 21 Noroeste 0 1012.1 -1.6 55
2019-10-01 14:00:00 26.2 5 Sudoeste 17 Sur 0 1012.8 -1.1 59
2019-10-01 13:00:00 24 9 Sudoeste 16 Sudoeste 0 1013.3 0 72
2019-10-01 12:00:00 22.9 6 Sur 12 Sudoeste 0 1013.7 0.9 86
2019-10-01 11:00:00 21.4 3 Sudeste 6 Sudeste 0 1013.9 1.1 88
2019-10-01 10:00:00 20.6 2 Sudoeste 8 Oeste 0 1013.3 0.5 87
2019-10-01 09:00:00 19.6 4 Noroeste 11 Oeste 0 1012.8 0.3 88
2019-10-01 08:00:00 19.6 5 Noroeste 10 Noroeste 0 1012.8 0.1 89
2019-10-01 07:00:00 19.5 3 Noroeste 13 Oeste 0 1012.8 -0.5 90
2019-10-01 06:00:00 19.8 3 Noroeste 6 Oeste 0 1012.5 -1.2 88
2019-10-01 05:00:00 20 0 Calma 5 Oeste 0 1012.7 -1 88
2019-10-01 04:00:00 20.3 0 Calma 5 Noroeste 0 1013.3 -0.6 89
2019-10-01 03:00:00 20.8 0 Calma 5 Nordeste 0 1013.7 -0.3 88
2019-10-01 02:00:00 20.8 2 Noroeste 8 Oeste 0 1013.7 -0.1 87
2019-10-01 01:00:00 21.4 0 Calma 4 Nordeste 0 1013.9 0.1 90
2019-10-01 00:00:00 21.6 0 Calma 5 Nordeste 0 1014 0.6 90
2019-09-30 23:00:00 21.7 3 Nordeste 5 Nordeste 0 1013.8 0.5 90
2019-09-30 22:00:00 21.6 3 Nordeste 13 Nordeste 0 1013.8 0.5 92
2019-09-30 21:00:00 22.1 9 Nordeste 16 Nordeste 0 1013.4 -0.3 92
2019-09-30 20:00:00 22.9 4 Norte 11 Norte 0 1013.3 -0.5 84
2019-09-30 19:00:00 23.3 3 Sudoeste 14 Sudoeste 0 1013.3 -1.3 80
2019-09-30 18:00:00 23.5 8 Sudoeste 21 Sur 0 1013.7 -1.3 78
2019-09-30 17:00:00 22.5 5 Sudoeste 16 Sur 0 1013.8 -2.1 95
2019-09-30 16:00:00 22.1 8 Sudoeste 21 Sur 0 1014.6 -1.8 97
2019-09-30 15:00:00 21.9 12 Sudoeste 19 Sudoeste 0 1015 -1.8 98
2019-09-30 14:00:00 21.8 11 Sudoeste 17 Sudoeste 0 1015.9 -0.8 98
2019-09-30 13:00:00 21.7 6 Sur 9 Sur 0 1016.4 0.2 98
2019-09-30 12:00:00 21 5 Sur 10 Sur 0 1016.8 0.9 99
2019-09-30 11:00:00 20.5 2 Sur 8 Sur 0 1016.7 1.1 98
2019-09-30 10:00:00 20.4 0 Calma 5 Oeste 0 1016.2 0.9 98
2019-09-30 09:00:00 20.2 3 Oeste 9 Oeste 0 1015.9 0.6 98
2019-09-30 08:00:00 19.8 0 Calma 8 Oeste 0 1015.6 0.3 94
2019-09-30 07:00:00 20.5 2 Noroeste 6 Oeste 0 1015.3 -0.4 95
2019-09-30 06:00:00 19.8 4 Noroeste 10 Oeste 0 1015.3 -1 92
2019-09-30 05:00:00 20.2 2 Oeste 6 Oeste 0 1015.3 -1.2 92
2019-09-30 04:00:00 20.6 0 Calma 9 Oeste 0 1015.7 -0.9 93
2019-09-30 03:00:00 21 2 Noroeste 5 Noroeste 0 1016.3 -0.3 92
2019-09-30 02:00:00 21.3 0 Calma 6 Oeste 0 1016.5 0 92
2019-09-30 01:00:00 21.4 3 Noroeste 8 Oeste 0 1016.6 0.3 92
2019-09-30 00:00:00 21.9 0 Calma 8 Oeste 0 1016.6 0.7 92
2019-09-29 23:00:00 22.3 4 Oeste 9 Oeste 0 1016.5 0.6 92
2019-09-29 22:00:00 22.7 2 Sudoeste 8 Oeste 0 1016.3 0.5 92
2019-09-29 21:00:00 22.9 4 Sudoeste 12 Sudoeste 0 1015.9 -0.3 92
2019-09-29 20:00:00 23.1 3 Sudoeste 15 Sudoeste 0 1015.9 -0.9 90
2019-09-29 19:00:00 23.6 10 Sudoeste 16 Sur 0 1015.8 -1.3 89
2019-09-29 18:00:00 23.3 12 Sudoeste 18 Sur 0 1016.2 -1.6 92
2019-09-29 17:00:00 23.9 6 Sur 9 Sur 0 1016.8 -1.8 91
2019-09-29 16:00:00 24.3 5 Sudeste 9 Sudeste 0 1017.1 -1.7 88
2019-09-29 15:00:00 24.2 6 Sudeste 11 Sudeste 0 1017.8 -1.3 87
2019-09-29 14:00:00 23.9 5 Este 9 Este 0 1018.6 -0.2 86
2019-09-29 13:00:00 23.5 5 Sudeste 8 Este 0 1018.8 0.5 86
2019-09-29 12:00:00 22.9 5 Nordeste 8 Nordeste 0 1019.1 1.5 88
2019-09-29 11:00:00 22.3 3 Nordeste 5 Nordeste 0 1018.8 1.7 88
2019-09-29 10:00:00 21.2 0 Calma 9 Noroeste 0 1018.3 1.9 80
2019-09-29 09:00:00 20.4 5 Noroeste 11 Oeste 0 1017.6 0.8 78
2019-09-29 08:00:00 20.1 5 Noroeste 14 Oeste 0 1017.1 -0.1 79
2019-09-29 07:00:00 19.7 7 Oeste 14 Oeste 0 1016.4 -1.1 81
2019-09-29 06:00:00 19.8 5 Noroeste 11 Noroeste 0 1016.8 -1.3 83
2019-09-29 05:00:00 20.1 6 Noroeste 11 Noroeste 0 1017.2 -0.9 85
2019-09-29 04:00:00 20.3 5 Noroeste 10 Oeste 0 1017.5 -0.9 90
2019-09-29 03:00:00 20.7 4 Noroeste 7 Oeste 0 1018.1 -0.3 92
2019-09-29 02:00:00 20.6 4 Oeste 7 Oeste 0 1018.1 -0.2 92
2019-09-29 01:00:00 20.8 0 Calma 3 Nordeste 0 1018.4 0.7 98
2019-09-29 00:00:00 20.9 0 Calma 4 Nordeste 0 1018.4 1.1 98
2019-09-28 23:00:00 21.9 0 Calma 4 Nordeste 0 1018.3 1.3 98
2019-09-28 22:00:00 22.2 0 Calma 6 Sur 0 1017.7 0.8 96
2019-09-28 21:00:00 22.5 5 Sur 8 Sur 0 1017.3 0.4 96
2019-09-28 20:00:00 23 0 Calma 3 Sudoeste 0 1017 -0.2 93
2019-09-28 19:00:00 23.5 2 Sudeste 5 Sudeste 0 1016.9 -0.8 92
2019-09-28 18:00:00 23.5 4 Sudeste 7 Sudeste 0 1016.9 -1.3 91
2019-09-28 17:00:00 23.4 5 Sudeste 9 Sudeste 0 1017.2 -1.7 91
2019-09-28 16:00:00 23.1 5 Sudeste 9 Sudeste 0 1017.7 -1.3 92
2019-09-28 15:00:00 22.7 6 Sudeste 10 Sudeste 0 1018.2 -1.1 93
2019-09-28 14:00:00 22.2 7 Sudeste 10 Sudeste 0 1018.9 -0.1 95
2019-09-28 13:00:00 21.6 9 Sudeste 13 Sudeste 0 1019 0.8 97
2019-09-28 12:00:00 21 6 Sudeste 9 Sudeste 0 1019.3 1.6 98
2019-09-28 11:00:00 20.4 4 Sudeste 10 Sur 0 1019 2 99
2019-09-28 10:00:00 20.2 6 Sur 12 Sur 0 1018.2 1.5 99
2019-09-28 09:00:00 20.5 0 Calma 6 Sudoeste 0 1017.7 1.3 99
2019-09-28 08:00:00 20.6 0 Calma 5 Oeste 0 1017 0.6 99
2019-09-28 07:00:00 20.4 0 Calma 6 Noroeste 0 1016.7 0 99
2019-09-28 06:00:00 20.5 0 Calma 8 Oeste 0 1016.4 -0.7 99
2019-09-28 05:00:00 20.3 6 Oeste 11 Oeste 0 1016.4 -1.1 99
2019-09-28 04:00:00 21 2 Nordeste 12 Este 0 1016.7 -1 99
2019-09-28 03:00:00 21.2 9 Este 14 Este 0 1017.1 -0.5 99
2019-09-28 02:00:00 21.5 8 Este 15 Este 0 1017.5 0.2 99
2019-09-28 01:00:00 21.8 10 Nordeste 14 Nordeste 0 1017.7 0.8 97
2019-09-28 00:00:00 22 5 Norte 7 Nordeste 0 1017.6 1.3 93
2019-09-27 23:00:00 22.4 0 Calma 8 Oeste 0 1017.3 1.3 91
2019-09-27 22:00:00 22.7 3 Sudoeste 6 Sudoeste 0 1016.9 1.1 92
2019-09-27 21:00:00 22.9 3 Sudoeste 9 Sudoeste 0 1016.3 0.4 93
2019-09-27 20:00:00 23.2 5 Sudoeste 17 Sur 0 1016 -0.4 91
2019-09-27 19:00:00 23.1 11 Sudoeste 21 Sur 0 1015.8 -1.1 93
2019-09-27 18:00:00 23.1 10 Sudoeste 15 Sur 0 1015.9 -1.7 93
2019-09-27 17:00:00 23.1 7 Sudoeste 11 Sudoeste 0 1016.4 -1.9 93
2019-09-27 16:00:00 22.9 6 Sur 11 Sur 0 1016.9 -1.7 94
2019-09-27 15:00:00 22.8 8 Sur 12 Sur 0 1017.6 -1.3 94
2019-09-27 14:00:00 22.4 7 Sur 11 Sur 0 1018.3 -0.4 95
2019-09-27 13:00:00 22.1 6 Sudoeste 10 Sudoeste 0 1018.6 0.4 96
2019-09-27 12:00:00 21.6 6 Sudoeste 13 Sudoeste 0 1018.9 1 97
2019-09-27 11:00:00 21.6 7 Sur 13 Sur 0 1018.7 1.3 95
2019-09-27 10:00:00 21.3 5 Sur 9 Sur 0 1018.2 1 90
2019-09-27 09:00:00 20.5 5 Oeste 10 Oeste 0 1017.9 0.5 89
2019-09-27 08:00:00 20.7 4 Oeste 13 Oeste 0 1017.4 0.1 90
2019-09-27 07:00:00 21 7 Oeste 13 Oeste 0 1017.2 -0.4 89
2019-09-27 06:00:00 21.2 4 Noroeste 7 Noroeste 0 1017.4 -0.5 88
2019-09-27 05:00:00 21.3 3 Noroeste 7 Oeste 0 1017.3 -0.9 88
2019-09-27 04:00:00 21.3 3 Noroeste 9 Noroeste 0 1017.6 -0.8 89
2019-09-27 03:00:00 21.5 0 Calma 14 Nordeste 0 1017.9 -0.3 96
2019-09-27 02:00:00 22 3 Nordeste 9 Nordeste 0 1018.2 0.1 98
2019-09-27 01:00:00 22.3 5 Norte 11 Nordeste 0 1018.4 1 98
2019-09-27 00:00:00 22.4 3 Nordeste 6 Este 0 1018.2 1.4 96
2019-09-26 23:00:00 22.6 3 Nordeste 5 Este 0 1018.1 1.4 94
2019-09-26 22:00:00 22.7 3 Este 7 Este 0 1017.4 0.9 94
2019-09-26 21:00:00 22.8 4 Nordeste 9 Nordeste 0 1016.8 0.5 93
2019-09-26 20:00:00 23.4 4 Nordeste 10 Sudeste 0 1016.7 0 91
2019-09-26 19:00:00 24.2 5 Este 13 Sudeste 0 1016.5 -0.7 90
2019-09-26 18:00:00 24 9 Este 18 Sudeste 0 1016.3 -1.3 89
2019-09-26 17:00:00 24.2 14 Sudeste 19 Sudeste 0 1016.7 -1.4 89
2019-09-26 16:00:00 24.4 12 Este 19 Este 0 1017.2 -1.4 89
2019-09-26 15:00:00 24.3 13 Este 22 Este 0 1017.6 -1.1 89
2019-09-26 14:00:00 24.2 16 Este 26 Este 0 1018.1 -0.3 89
2019-09-26 13:00:00 23.6 17 Este 24 Nordeste 0 1018.6 1 89
2019-09-26 12:00:00 23.1 17 Este 27 Este 0 1018.7 1.8 90
2019-09-26 11:00:00 22.8 20 Sudeste 26 Sudeste 0 1018.4 2.1 89
2019-09-26 10:00:00 22.7 10 Este 17 Este 0 1017.6 1.8 89
2019-09-26 09:00:00 22.8 12 Este 23 Este 0 1016.9 1.4 86
2019-09-26 08:00:00 22.4 12 Este 16 Este 0 1016.3 0.9 84
2019-09-26 07:00:00 22 3 Nordeste 11 Nordeste 0 1015.8 0.5 87
2019-09-26 06:00:00 22.3 3 Nordeste 15 Nordeste 0 1015.5 0.6 91
2019-09-26 05:00:00 21.7 4 Este 13 Este 0 1015.4 1.1 95
2019-09-26 04:00:00 22.3 6 Este 23 Este 0 1015.3 1.1 95
2019-09-26 03:00:00 23.3 20 Este 30 Este 0 1014.9 0.9 76
2019-09-26 02:00:00 23.5 4 Sudoeste 22 Noroeste 0 1014.3 0.5 77
2019-09-26 01:00:00 27.5 2 Oeste 19 Norte 0 1014.2 0.6 41
2019-09-26 00:00:00 27 0 Calma 26 Oeste 0 1014 0.7 42
2019-09-25 23:00:00 27.4 5 Noroeste 22 Noroeste 0 1013.8 0.8 47
2019-09-25 22:00:00 23 0 Calma 14 Sudoeste 0 1013.6 0.7 77
2019-09-25 21:00:00 22.9 5 Sudoeste 10 Sudoeste 0 1013.3 0.5 87
2019-09-25 20:00:00 24 4 Sudoeste 21 Sur 0 1013 0 82
2019-09-25 19:00:00 24.2 13 Sudoeste 25 Sur 0 1012.9 -0.5 80
2019-09-25 18:00:00 27.9 5 Sudoeste 20 Sudoeste 0 1012.8 -1.3 60
2019-09-25 17:00:00 27.3 8 Sudoeste 22 Oeste 0 1013 -1.6 61
2019-09-25 16:00:00 27.4 13 Sur 23 Sur 0 1013.4 -1.9 67
2019-09-25 15:00:00 26.3 4 Sudoeste 22 Sudoeste 0 1014.1 -1.6 69
2019-09-25 14:00:00 25.9 9 Sudoeste 22 Sur 0 1014.6 -0.7 72
2019-09-25 13:00:00 24.6 5 Sur 13 Sudoeste 0 1015.3 0.4 77
2019-09-25 12:00:00 24.8 2 Este 15 Sudeste 0 1015.7 1.3 77
2019-09-25 11:00:00 24.4 10 Sudeste 13 Sudeste 0 1015.3 1.4 73
2019-09-25 10:00:00 25.3 5 Este 22 Nordeste 0 1014.9 1 67
2019-09-25 09:00:00 24.8 2 Norte 15 Oeste 0 1014.4 0.4 70
2019-09-25 08:00:00 24.4 5 Noroeste 13 Oeste 0 1013.9 0 69
2019-09-25 07:00:00 23.8 2 Noroeste 10 Noroeste 0 1013.9 -0.3 68
2019-09-25 06:00:00 23.2 3 Sur 11 Noroeste 0 1014 -0.6 71
2019-09-25 05:00:00 21.9 0 Calma 6 Norte 0 1013.9 -0.7 79
2019-09-25 04:00:00 21.1 3 Nordeste 13 Oeste 0 1014.2 -0.9 92
2019-09-25 03:00:00 21.2 2 Nordeste 8 Nordeste 0 1014.6 -0.8 97
2019-09-25 02:00:00 21.3 0 Calma 11 Nordeste 0 1014.6 -0.8 96
2019-09-25 01:00:00 21.6 0 Calma 7 Nordeste 0 1015.1 -0.4 95
2019-09-25 00:00:00 21.8 0 Calma 6 Nordeste 0 1015.4 0.5 95
2019-09-24 23:00:00 21.8 4 Nordeste 15 Nordeste 0 1015.4 0.5 94
2019-09-24 22:00:00 22.4 8 Nordeste 20 Nordeste 0 1015.5 0.7 90
2019-09-24 21:00:00 24.8 6 Nordeste 12 Nordeste 0 1014.9 -0.2 66
2019-09-24 20:00:00 27.2 3 Oeste 13 Oeste 0 1014.9 -0.4 49
2019-09-24 19:00:00 27.6 5 Sudoeste 14 Sudoeste 0 1014.8 -1.2 55
2019-09-24 18:00:00 27.6 4 Oeste 16 Oeste 0 1015.1 -1.4 54
2019-09-24 17:00:00 26.3 5 Sudoeste 19 Sudoeste 0 1015.3 -2.5 60
2019-09-24 16:00:00 26.5 8 Sudoeste 23 Sudoeste 0 1016 -2.6 53
2019-09-24 15:00:00 27.4 5 Oeste 21 Sudoeste 0 1016.5 -2.5 54
2019-09-24 14:00:00 23.4 9 Sudoeste 22 Sur 0 1017.8 -1.2 76
2019-09-24 13:00:00 21.7 14 Sudoeste 27 Sudoeste 0 1018.6 -0.1 82
2019-09-24 12:00:00 22.1 13 Sudoeste 19 Sudoeste 0 1019 0.6 84
2019-09-24 11:00:00 21.7 5 Sur 10 Sur 0 1019 1 79
2019-09-24 10:00:00 21 0 Calma 12 Oeste 0 1018.7 0.6 71
2019-09-24 09:00:00 19.1 9 Oeste 14 Oeste 0 1018.4 0.5 73
2019-09-24 08:00:00 19.4 5 Noroeste 12 Noroeste 0 1018 0.1 74
2019-09-24 07:00:00 19.3 6 Noroeste 14 Oeste 0 1018.1 -0.2 74
2019-09-24 06:00:00 19.1 8 Noroeste 13 Oeste 0 1017.9 -0.9 76
2019-09-24 05:00:00 19.6 3 Noroeste 8 Oeste 0 1017.9 -0.8 76
2019-09-24 04:00:00 19.9 4 Noroeste 9 Oeste 0 1018.3 -0.6 77
2019-09-24 03:00:00 20.3 5 Noroeste 9 Noroeste 0 1018.8 -0.3 76
2019-09-24 02:00:00 20.5 4 Noroeste 6 Noroeste 0 1018.7 -0.2 78
2019-09-24 01:00:00 21.1 2 Norte 5 Norte 0 1018.9 0.3 92
2019-09-24 00:00:00 21.8 3 Nordeste 9 Este 0 1019.1 1.2 89
2019-09-23 23:00:00 21.8 2 Nordeste 9 Nordeste 0 1018.9 1.4 88
2019-09-23 22:00:00 22.4 7 Nordeste 9 Nordeste 0 1018.6 1.3 81
2019-09-23 21:00:00 22.9 3 Sudoeste 11 Sudoeste 0 1017.9 0.5 76
2019-09-23 20:00:00 22.9 4 Sudoeste 13 Sudoeste 0 1017.5 0.1 76
2019-09-23 19:00:00 23.2 9 Sudoeste 15 Sur 0 1017.3 -0.5 76
2019-09-23 18:00:00 23.2 9 Sudoeste 16 Sur 0 1017.4 -0.7 77
2019-09-23 17:00:00 23.4 8 Sudoeste 10 Sur 0 1017.4 -0.8 79
2019-09-23 16:00:00 23.3 4 Sur 8 Sur 0 1017.8 -0.6 80
2019-09-23 15:00:00 23.6 4 Sur 8 Sudeste 0 1018.1 -0.5 79
2019-09-23 14:00:00 23.5 2 Sudeste 8 Sur 0 1018.2 0 79
2019-09-23 13:00:00 23.4 8 Sur 11 Sudeste 0 1018.4 0.9 79
2019-09-23 12:00:00 23.2 5 Sudeste 12 Sudeste 0 1018.6 1.5 78
2019-09-23 11:00:00 22.6 10 Sur 12 Sur 0 1018.2 1.6 74
2019-09-23 10:00:00 22.3 3 Sudoeste 10 Noroeste 0 1017.5 1.7 68
2019-09-23 09:00:00 21.7 3 Oeste 9 Norte 0 1017.1 1.4 68
2019-09-23 08:00:00 21.2 5 Noroeste 11 Noroeste 0 1016.6 1.4 66
2019-09-23 07:00:00 21.1 3 Oeste 10 Norte 0 1015.8 0.5 68
2019-09-23 06:00:00 21.5 4 Oeste 8 Oeste 0 1015.7 0 66
2019-09-23 05:00:00 21.5 0 Calma 10 Noroeste 0 1015.2 -0.7 66
2019-09-23 04:00:00 21.3 2 Sudoeste 8 Sur 0 1015.3 -0.6 74
2019-09-23 03:00:00 22.1 0 Calma 6 Noroeste 0 1015.7 -0.1 69
2019-09-23 02:00:00 22.6 3 Sur 11 Sudoeste 0 1015.9 0.3 71
2019-09-23 01:00:00 22.8 6 Noroeste 12 Oeste 0 1015.9 0.7 65
2019-09-23 00:00:00 23.3 10 Sur 18 Sur 0 1015.8 1.2 73
2019-09-22 23:00:00 22.4 3 Oeste 11 Sur 0 1015.6 1.1 76
2019-09-22 22:00:00 23.2 0 Calma 8 Sudoeste 0 1015.2 0.9 75
2019-09-22 21:00:00 23.7 4 Sudoeste 17 Oeste 0 1014.6 0.5 70
2019-09-22 20:00:00 24.4 5 Oeste 18 Sudoeste 0 1014.5 0.5 65
2019-09-22 19:00:00 25.7 6 Oeste 31 Oeste 0 1014.3 0.5 60
2019-09-22 18:00:00 25 6 Sudoeste 28 Noroeste 0 1014.1 0.1 74
2019-09-22 17:00:00 24.7 7 Oeste 37 Oeste 0 1014 -0.3 78
2019-09-22 16:00:00 24.6 10 Sudoeste 31 Oeste 0 1013.8 -0.8 78
2019-09-22 15:00:00 25.3 10 Oeste 32 Oeste 0 1014 -0.6 76
2019-09-22 14:00:00 24.7 7 Oeste 30 Oeste 0 1014.3 -0.3 81
2019-09-22 13:00:00 24.7 11 Oeste 33 Oeste 0 1014.6 0.1 81
2019-09-22 12:00:00 24 8 Oeste 23 Noroeste 0 1014.6 0.6 82
2019-09-22 11:00:00 23.6 5 Oeste 21 Oeste 0 1014.6 1.1 84
2019-09-22 10:00:00 22.2 5 Oeste 14 Oeste 0 1014.5 1.3 85
2019-09-22 09:00:00 21.1 2 Oeste 9 Oeste 0 1014 1.2 86
2019-09-22 08:00:00 20.8 3 Oeste 11 Oeste 0 1013.5 0.7 86
2019-09-22 07:00:00 20.5 5 Oeste 10 Noroeste 0 1013.2 0.2 86
2019-09-22 06:00:00 21.3 0 Calma 4 Oeste 0 1012.8 -0.4 85
2019-09-22 05:00:00 21.2 0 Calma 12 Oeste 0 1012.8 -0.6 84
2019-09-22 04:00:00 22.1 0 Calma 9 Oeste 0 1013 -0.4 82
2019-09-22 03:00:00 22.2 0 Calma 7 Oeste 0 1013.2 -0.2 80
2019-09-22 02:00:00 22.6 3 Oeste 13 Oeste 0 1013.4 0.1 81
2019-09-22 01:00:00 22.9 3 Sudoeste 8 Oeste 0 1013.4 0.2 79
2019-09-22 00:00:00 23.3 3 Sudoeste 8 Sur 0 1013.4 0.8 82
2019-09-21 23:00:00 23.3 2 Sudoeste 10 Oeste 0 1013.3 1.1 74
2019-09-21 22:00:00 23.5 5 Oeste 28 Oeste 0 1013.2 1.1 74
2019-09-21 21:00:00 23.7 3 Oeste 13 Oeste 0 1012.6 0.4 72
2019-09-21 20:00:00 23.9 3 Oeste 13 Sudoeste 0 1012.2 -0.2 70
2019-09-21 19:00:00 24 7 Sudoeste 16 Sur 0 1012.1 -0.4 79
2019-09-21 18:00:00 23.8 8 Sudoeste 18 Sur 0 1012.2 -0.8 81
2019-09-21 17:00:00 23.4 13 Sudoeste 19 Sudoeste 0 1012.4 -0.9 89
2019-09-21 16:00:00 23.2 12 Sudoeste 21 Sudoeste 0 1012.5 -1.3 95
2019-09-21 15:00:00 23.2 14 Sudoeste 22 Sur 0 1013 -0.8 98
2019-09-21 14:00:00 23.2 13 Sudoeste 18 Sudoeste 0 1013.3 -0.6 98
2019-09-21 13:00:00 23.3 11 Sudoeste 16 Sudoeste 0 1013.8 0.6 98
2019-09-21 12:00:00 23.5 8 Sudoeste 12 Sudoeste 0 1013.8 1.2 97
2019-09-21 11:00:00 23.2 8 Sur 12 Sur 0 1013.9 1.7 96
2019-09-21 10:00:00 23.1 0 Calma 8 Oeste 0 1013.2 1.4 96
2019-09-21 09:00:00 22.7 3 Oeste 6 Noroeste 0 1012.6 0.5 96
2019-09-21 08:00:00 22.8 0 Calma 7 Oeste 0 1012.2 0.3 96
2019-09-21 07:00:00 22.9 0 Calma 6 Oeste 0 1011.8 -0.4 95
2019-09-21 06:00:00 23 0 Calma 7 Noroeste 0 1012.1 -0.4 95
2019-09-21 05:00:00 23.1 4 Noroeste 6 Oeste 0 1011.9 -1.3 95
2019-09-21 04:00:00 23.4 5 Oeste 9 Sudoeste 0 1012.2 -1.4 95
2019-09-21 03:00:00 23.4 0 Calma 9 Este 0 1012.5 -1.4 95
2019-09-21 02:00:00 23.5 6 Nordeste 11 Nordeste 0 1013.2 -1 95
2019-09-21 01:00:00 23.6 4 Este 8 Este 0 1013.6 -0.3 95
2019-09-21 00:00:00 23.7 3 Este 5 Nordeste 0 1013.9 0.3 94
2019-09-20 23:00:00 23.8 3 Nordeste 6 Este 0 1014.2 1.3 93
2019-09-20 22:00:00 23.9 3 Este 7 Sudeste 0 1013.9 1.3 92
2019-09-20 21:00:00 24.2 4 Sur 7 Sur 0 1013.6 0.4 90
2019-09-20 20:00:00 24.4 0 Calma 7 Nordeste 0 1012.9 -0.3 90
2019-09-20 19:00:00 24.3 5 Nordeste 7 Nordeste 0 1012.6 -0.8 90
2019-09-20 18:00:00 24.6 3 Este 8 Este 0 1013.2 -0.8 91
2019-09-20 17:00:00 24.4 5 Nordeste 11 Nordeste 0 1013.2 -1.1 92
2019-09-20 16:00:00 24.5 6 Este 15 Este 0 1013.4 -1.3 93
2019-09-20 15:00:00 24.3 9 Este 15 Este 0 1014 -1.1 95
2019-09-20 14:00:00 24.4 9 Este 19 Este 0 1014.3 -0.6 95
2019-09-20 13:00:00 24.6 13 Este 17 Este 0 1014.7 0.3 94
2019-09-20 12:00:00 24.7 11 Este 18 Este 0 1015.1 1.1 94
2019-09-20 11:00:00 24.1 10 Este 17 Este 0 1014.9 1.3 95
2019-09-20 10:00:00 23.7 7 Este 12 Este 0 1014.4 1.1 95
2019-09-20 09:00:00 23.1 0 Calma 5 Nordeste 0 1014 0.5 95
2019-09-20 08:00:00 23.1 2 Nordeste 8 Este 0 1013.6 -0.7 96
2019-09-20 07:00:00 23.2 4 Este 15 Este 0 1013.3 -1.8 96
2019-09-20 06:00:00 23.2 10 Este 17 Este 0 1013.5 -1.8 96
2019-09-20 05:00:00 23 11 Este 16 Este 0 1014.3 -1 96
2019-09-20 04:00:00 23 8 Este 14 Este 0 1015.1 -0.2 96
2019-09-20 03:00:00 22.9 9 Nordeste 14 Nordeste 0 1015.3 0.1 97
2019-09-20 02:00:00 23 8 Este 12 Este 0 1015.3 0.4 97
2019-09-20 01:00:00 23 9 Este 15 Este 0 1015.3 0.7 97
2019-09-20 00:00:00 23.1 9 Este 17 Este 0 1015.2 1 96